Time;durP1;ratioP1;P1;durP2;ratioP2;P2;SDS_P1;SDS_P2;PMS_P1;PMS_P2;Temp;Humidity;BMP_temperature;BMP_pressure;BME280_temperature;BME280_humidity;BME280_pressure;Samples;Min_cycle;Max_cycle;Signal;HPM_P1;HPM_P2
2021/06/11 00:01:39;;;;;;;5.30;4.35;;;;;;;16.01;61.98;98318.16;1744696;80;28143;-89
2021/06/11 00:04:05;;;;;;;6.55;3.92;;;;;;;16.00;62.09;98316.49;1751779;80;28100;-89
2021/06/11 00:06:32;;;;;;;6.20;4.05;;;;;;;16.00;62.17;98313.37;1758660;80;28290;-89
2021/06/11 00:08:59;;;;;;;7.72;4.97;;;;;;;16.01;62.25;98311.08;1754808;80;28178;-89
2021/06/11 00:11:26;;;;;;;8.30;4.25;;;;;;;16.01;62.31;98303.16;1739181;80;28030;-88
2021/06/11 00:13:54;;;;;;;5.45;4.17;;;;;;;16.01;62.39;98303.16;1758987;80;28060;-87
2021/06/11 00:16:21;;;;;;;6.40;4.28;;;;;;;15.97;62.44;98297.83;1756126;80;28124;-88
2021/06/11 00:18:47;;;;;;;6.33;4.55;;;;;;;15.95;62.53;98306.38;1756483;80;28147;-88
2021/06/11 00:21:14;;;;;;;6.78;4.35;;;;;;;15.88;62.60;98297.36;1755345;80;27988;-88
2021/06/11 00:23:40;;;;;;;7.22;5.30;;;;;;;15.84;62.63;98297.30;1754878;80;28092;-88
2021/06/11 00:26:06;;;;;;;8.65;5.08;;;;;;;15.82;62.71;98299.24;1762459;80;28082;-88
2021/06/11 00:28:33;;;;;;;12.82;5.50;;;;;;;15.74;62.78;98305.25;1749716;79;28014;-88
2021/06/11 00:30:59;;;;;;;10.98;4.85;;;;;;;15.68;62.83;98304.50;1739328;80;28056;-88
2021/06/11 00:33:25;;;;;;;10.43;5.00;;;;;;;15.63;62.92;98308.05;1738719;80;28017;-88
2021/06/11 00:35:52;;;;;;;13.50;5.70;;;;;;;15.62;63.00;98307.70;1740269;80;28107;-88
2021/06/11 00:38:33;;;;;;;9.23;6.05;;;;;;;15.62;63.08;98309.50;1741535;80;28107;-88
2021/06/11 00:41:03;;;;;;;9.87;5.00;;;;;;;15.61;63.15;98307.35;1749058;79;47672;-88
2021/06/11 00:43:30;;;;;;;10.23;5.90;;;;;;;15.62;63.22;98313.46;1750201;79;28070;-88
2021/06/11 00:45:57;;;;;;;11.40;5.75;;;;;;;15.58;63.30;98308.97;1741134;80;27983;-88
2021/06/11 00:48:23;;;;;;;11.78;6.15;;;;;;;15.55;63.37;98307.11;1736690;81;28073;-89
2021/06/11 00:50:50;;;;;;;13.43;6.12;;;;;;;15.54;63.46;98305.44;1733617;80;28063;-89
2021/06/11 00:53:16;;;;;;;11.33;5.83;;;;;;;15.55;63.51;98303.16;1740828;81;27992;-88
2021/06/11 00:55:44;;;;;;;11.68;6.00;;;;;;;15.53;63.61;98308.56;1738573;81;28138;-88
2021/06/11 00:58:17;;;;;;;8.83;5.33;;;;;;;15.48;63.67;98310.27;1736949;81;28096;-88
2021/06/11 01:00:44;;;;;;;11.40;6.67;;;;;;;15.43;63.73;98322.22;1737446;81;28005;-88
2021/06/11 01:03:11;;;;;;;13.80;6.25;;;;;;;15.34;63.82;98315.96;1743654;79;28162;-88
2021/06/11 01:05:41;;;;;;;8.58;6.00;;;;;;;15.30;63.90;98311.95;1757659;79;28189;-88
2021/06/11 01:08:08;;;;;;;9.50;5.95;;;;;;;15.31;64.00;98320.69;1763550;78;28063;-88
2021/06/11 01:10:34;;;;;;;10.30;6.30;;;;;;;15.28;64.10;98316.52;1770322;78;28075;-89
2021/06/11 01:13:07;;;;;;;12.43;5.85;;;;;;;15.24;64.16;98315.14;1771124;78;28063;-88
2021/06/11 01:15:36;;;;;;;14.28;6.00;;;;;;;15.24;64.25;98320.89;1748946;79;28105;-89
2021/06/11 01:18:02;;;;;;;9.18;5.78;;;;;;;15.22;64.32;98310.48;1760988;78;28037;-90
2021/06/11 01:20:29;;;;;;;12.50;5.70;;;;;;;15.23;64.38;98311.31;1760842;78;28104;-88
2021/06/11 01:23:04;;;;;;;11.53;6.28;;;;;;;15.22;64.44;98309.67;1759664;78;28044;-88
2021/06/11 01:25:49;;;;;;;13.62;6.87;;;;;;;15.19;64.52;98309.45;1734769;81;28100;-88
2021/06/11 01:28:17;;;;;;;11.50;6.37;;;;;;;15.17;64.59;98309.23;1741639;80;28101;-88
2021/06/11 01:30:55;;;;;;;13.45;5.72;;;;;;;15.11;64.66;98306.66;1739564;81;28064;-88
2021/06/11 01:33:24;;;;;;;11.93;5.30;;;;;;;15.07;64.73;98308.75;1741598;80;28086;-88
2021/06/11 01:35:54;;;;;;;13.70;6.78;;;;;;;15.03;64.79;98305.22;1734266;81;27996;-89
2021/06/11 01:38:23;;;;;;;14.05;6.10;;;;;;;15.01;64.87;98298.76;1739738;81;28106;-89
2021/06/11 01:40:52;;;;;;;11.70;6.30;;;;;;;15.02;64.92;98298.27;1736752;82;28062;-89
2021/06/11 01:43:22;;;;;;;10.48;5.62;;;;;;;15.01;65.00;98303.19;1737464;81;28121;-89
2021/06/11 01:45:49;;;;;;;11.83;6.33;;;;;;;14.95;65.05;98297.98;1737592;81;28056;-89
2021/06/11 01:48:18;;;;;;;10.43;5.78;;;;;;;14.88;65.10;98294.26;1742518;81;28070;-88
2021/06/11 01:50:45;;;;;;;10.23;5.60;;;;;;;14.86;65.19;98296.67;1737010;80;28098;-88
2021/06/11 01:53:14;;;;;;;10.30;6.17;;;;;;;14.91;65.24;98297.09;1736171;81;28109;-88
2021/06/11 01:55:48;;;;;;;8.85;5.97;;;;;;;14.96;65.28;98295.70;1741381;81;28098;-89
2021/06/11 01:58:17;;;;;;;10.60;6.00;;;;;;;14.98;65.32;98295.58;1742538;81;28191;-89
2021/06/11 02:00:54;;;;;;;12.30;6.87;;;;;;;14.99;65.34;98302.52;1741101;81;28066;-89
2021/06/11 02:03:23;;;;;;;11.12;6.50;;;;;;;15.00;65.37;98306.83;1737428;81;28092;-88
2021/06/11 02:05:50;;;;;;;12.03;6.60;;;;;;;14.97;65.42;98294.74;1740038;81;28097;-89
2021/06/11 02:08:17;;;;;;;10.00;6.78;;;;;;;14.97;65.46;98294.74;1736784;81;28068;-88
2021/06/11 02:10:44;;;;;;;13.18;7.28;;;;;;;14.96;65.49;98299.66;1739417;81;28096;-88
2021/06/11 02:13:11;;;;;;;10.95;6.45;;;;;;;14.94;65.54;98290.24;1735380;81;28137;-88
2021/06/11 02:15:38;;;;;;;8.53;6.15;;;;;;;14.92;65.60;98295.64;1737044;81;28042;-88
2021/06/11 02:18:05;;;;;;;10.38;6.47;;;;;;;14.91;65.64;98297.09;1738302;81;28050;-89
2021/06/11 02:20:33;;;;;;;12.90;6.97;;;;;;;14.87;65.70;98297.02;1737106;81;28067;-88
2021/06/11 02:22:59;;;;;;;8.93;6.35;;;;;;;14.84;65.73;98301.23;1739990;81;28080;-88
2021/06/11 02:25:27;;;;;;;10.75;6.30;;;;;;;14.77;65.77;98294.38;1739147;81;28085;-88
2021/06/11 02:27:56;;;;;;;11.03;5.90;;;;;;;14.73;65.81;98294.80;1737723;81;28047;-88
2021/06/11 02:30:32;;;;;;;9.85;5.78;;;;;;;14.74;65.87;98299.07;1741446;81;28074;-89
2021/06/11 02:32:58;;;;;;;9.73;6.53;;;;;;;14.72;65.90;98296.59;1737828;81;28097;-89
2021/06/11 02:35:25;;;;;;;9.00;5.70;;;;;;;14.72;65.94;98295.28;1736989;81;28094;-89
2021/06/11 02:37:53;;;;;;;10.35;6.33;;;;;;;14.72;66.02;98298.39;1738755;81;28058;-88
2021/06/11 02:40:22;;;;;;;9.15;6.00;;;;;;;14.74;66.06;98297.75;1741744;81;28096;-89
2021/06/11 02:43:01;;;;;;;9.50;6.17;;;;;;;14.73;66.12;98294.28;1727042;81;28179;-89
2021/06/11 02:45:31;;;;;;;10.48;5.97;;;;;;;14.73;66.13;98293.48;1738256;81;28084;-89
2021/06/11 02:48:17;;;;;;;8.63;5.58;;;;;;;14.72;66.21;98292.64;1747798;81;28074;-89
2021/06/11 02:51:03;;;;;;;7.00;5.35;;;;;;;14.68;66.28;98290.39;1745079;81;28131;-89
2021/06/11 02:53:32;;;;;;;11.57;6.40;;;;;;;14.65;66.32;98288.88;1739863;81;28104;-89
2021/06/11 02:56:02;;;;;;;10.10;5.92;;;;;;;14.70;66.44;98293.25;1742381;80;28134;-89
2021/06/11 02:58:46;;;;;;;9.48;6.50;;;;;;;14.69;66.49;98296.02;1727883;81;28147;-89
2021/06/11 03:01:13;;;;;;;8.13;5.17;;;;;;;14.67;66.58;98294.02;1770212;78;28069;-89
2021/06/11 03:03:41;;;;;;;8.55;5.05;;;;;;;14.63;66.64;98295.59;1771744;78;28055;-89
2021/06/11 03:06:10;;;;;;;6.85;5.00;;;;;;;14.62;66.68;98299.67;1778022;78;28043;-89
2021/06/11 03:08:43;;;;;;;7.30;5.33;;;;;;;14.57;66.75;98294.81;1755681;78;28084;-89
2021/06/11 03:11:28;;;;;;;6.45;4.75;;;;;;;14.56;66.79;98304.99;1757332;78;28075;-89
2021/06/11 03:13:54;;;;;;;6.65;4.65;;;;;;;14.59;66.86;98304.73;1762932;78;28100;-89
2021/06/11 03:16:28;;;;;;;6.55;4.80;;;;;;;14.67;66.95;98309.34;1768720;78;28074;-89
2021/06/11 03:19:01;;;;;;;7.87;5.40;;;;;;;14.74;67.02;98303.86;1771369;78;28067;-89
2021/06/11 03:21:37;;;;;;;7.90;4.83;;;;;;;14.80;67.08;98303.31;1766513;78;28055;-89
2021/06/11 03:24:13;;;;;;;7.78;4.90;;;;;;;14.88;67.14;98303.96;1757371;78;28075;-89
2021/06/11 03:26:55;;;;;;;4.87;4.10;;;;;;;14.90;67.17;98303.32;1779811;78;28124;-89
2021/06/11 03:29:35;;;;;;;6.17;4.60;;;;;;;14.94;67.19;98304.25;1765154;78;28049;-89
2021/06/11 03:32:05;;;;;;;6.12;4.85;;;;;;;15.03;67.24;98303.42;1779112;78;28051;-88
2021/06/11 03:34:37;;;;;;;10.03;5.55;;;;;;;15.14;67.30;98306.88;1776373;78;28092;-88
2021/06/11 03:37:06;;;;;;;6.67;4.67;;;;;;;15.18;67.31;98306.46;1769294;78;28152;-89
2021/06/11 03:39:50;;;;;;;7.67;5.40;;;;;;;15.17;67.26;98307.91;1733867;80;28126;-88
2021/06/11 03:42:18;;;;;;;8.88;5.00;;;;;;;15.15;67.25;98308.55;1739961;80;28007;-89
2021/06/11 03:44:51;;;;;;;7.75;4.62;;;;;;;15.12;67.24;98304.38;1727184;80;28072;-88
2021/06/11 03:47:27;;;;;;;12.43;4.67;;;;;;;15.11;67.22;98307.98;1736544;80;28087;-89
2021/06/11 03:49:56;;;;;;;20.12;5.17;;;;;;;15.12;67.24;98310.13;1732091;81;28070;-89
2021/06/11 03:52:27;;;;;;;8.78;4.05;;;;;;;15.12;67.22;98309.64;1688703;82;28098;-89
2021/06/11 03:55:16;;;;;;;6.92;4.22;;;;;;;15.13;67.23;98300.77;1685941;82;28130;-89
2021/06/11 03:57:45;;;;;;;8.03;4.83;;;;;;;15.15;67.26;98305.44;1739992;81;28061;-89
2021/06/11 04:00:12;;;;;;;6.83;4.55;;;;;;;15.19;67.29;98298.06;1736908;81;28079;-89
2021/06/11 04:02:38;;;;;;;6.55;4.60;;;;;;;15.21;67.31;98304.88;1730745;82;28117;-89
2021/06/11 04:05:05;;;;;;;8.40;4.70;;;;;;;15.27;67.32;98302.17;1736463;81;28075;-89
2021/06/11 04:07:37;;;;;;;6.83;4.50;;;;;;;15.42;67.39;98310.83;1735587;82;28051;-88
2021/06/11 04:10:11;;;;;;;;;;;;;;;15.56;67.48;98308.27;1777069;78;28006;-88
2021/06/11 04:12:55;;;;;;;5.95;4.55;;;;;;;15.63;67.50;98312.01;1776745;79;24586;-88
2021/06/11 04:15:32;;;;;;;10.03;5.17;;;;;;;15.64;67.46;98314.16;1767249;79;28106;-89
2021/06/11 04:18:03;;;;;;;12.10;4.25;;;;;;;15.67;67.46;98306.79;1735552;80;28149;-88
2021/06/11 04:20:32;;;;;;;5.85;3.60;;;;;;;15.66;67.47;98318.31;1699090;81;28105;-88
2021/06/11 04:23:02;;;;;;;6.42;3.87;;;;;;;15.62;67.51;98318.73;1735015;80;28118;-88
2021/06/11 04:25:32;;;;;;;6.53;3.90;;;;;;;15.66;67.58;98319.63;1741476;80;28165;-88
2021/06/11 04:28:00;;;;;;;4.62;3.87;;;;;;;15.83;67.73;98320.22;1734302;80;28126;-88
2021/06/11 04:30:28;;;;;;;8.15;4.40;;;;;;;15.96;67.81;98317.77;1735955;80;27994;-89
2021/06/11 04:32:54;;;;;;;8.25;4.22;;;;;;;16.15;67.90;98317.20;1731859;80;28063;-89
2021/06/11 04:35:25;;;;;;;5.80;4.10;;;;;;;16.36;67.96;98313.03;1709873;80;28072;-88
2021/06/11 04:37:52;;;;;;;9.20;5.28;;;;;;;16.53;67.98;98318.83;1720231;81;28149;-89
2021/06/11 04:40:23;;;;;;;8.48;4.47;;;;;;;16.75;67.98;98318.95;1731969;81;28123;-88
2021/06/11 04:42:49;;;;;;;8.53;5.33;;;;;;;16.98;67.95;98314.91;1694488;80;28230;-88
2021/06/11 04:45:21;;;;;;;5.80;4.72;;;;;;;17.20;67.93;98312.79;1734976;80;28079;-88
2021/06/11 04:47:47;;;;;;;5.92;4.72;;;;;;;17.36;67.89;98310.28;1728427;80;28068;-89
2021/06/11 04:50:14;;;;;;;7.00;4.83;;;;;;;17.50;67.83;98311.92;1727684;80;28071;-89
2021/06/11 04:52:40;;;;;;;8.58;5.12;;;;;;;17.59;67.74;98314.12;1726773;81;28186;-88
2021/06/11 04:55:09;;;;;;;6.65;4.65;;;;;;;17.67;67.63;98315.55;1706204;80;28081;-88
2021/06/11 04:57:36;;;;;;;6.15;4.08;;;;;;;17.74;67.51;98319.70;1745974;80;27991;-88
2021/06/11 05:00:04;;;;;;;7.67;4.85;;;;;;;17.82;67.41;98316.64;1745432;80;28042;-88
2021/06/11 05:02:31;;;;;;;6.35;4.80;;;;;;;17.87;67.27;98313.52;1742348;80;28145;-88
2021/06/11 05:04:57;;;;;;;6.95;4.28;;;;;;;17.89;67.13;98315.01;1742827;80;28088;-88
2021/06/11 05:07:23;;;;;;;5.33;4.12;;;;;;;17.94;67.00;98314.57;1732054;80;28117;-89
2021/06/11 05:09:56;;;;;;;5.80;4.47;;;;;;;17.99;66.92;98314.92;1729651;80;28071;-89
2021/06/11 05:12:22;;;;;;;6.40;4.22;;;;;;;18.06;66.88;98317.75;1732462;80;28107;-88
2021/06/11 05:14:48;;;;;;;7.45;4.30;;;;;;;18.13;66.80;98318.80;1720967;80;28130;-89
2021/06/11 05:17:14;;;;;;;9.70;4.60;;;;;;;18.18;66.72;98323.95;1749905;80;28159;-89
2021/06/11 05:19:41;;;;;;;6.62;4.03;;;;;;;18.21;66.64;98317.53;1752040;80;28124;-89
2021/06/11 05:22:07;;;;;;;7.75;4.22;;;;;;;18.23;66.57;98319.51;1742057;80;27999;-89
2021/06/11 05:24:43;;;;;;;7.12;4.40;;;;;;;18.25;66.49;98312.24;1741373;80;28103;-88
2021/06/11 05:27:12;;;;;;;5.95;3.95;;;;;;;18.26;66.38;98312.59;1731404;80;28080;-88
2021/06/11 05:29:39;;;;;;;8.63;4.08;;;;;;;18.31;66.33;98315.59;1748778;80;28179;-89
2021/06/11 05:32:06;;;;;;;6.12;4.10;;;;;;;18.33;66.24;98311.77;1746850;80;28019;-89
2021/06/11 05:34:32;;;;;;;9.20;4.60;;;;;;;18.36;66.16;98315.94;1754975;80;28142;-88
2021/06/11 05:36:59;;;;;;;7.70;4.60;;;;;;;18.37;66.13;98314.95;1747841;79;28068;-89
2021/06/11 05:39:25;;;;;;;11.65;5.00;;;;;;;18.38;66.03;98317.42;1766954;78;28027;-88
2021/06/11 05:41:53;;;;;;;5.92;3.90;;;;;;;18.41;65.95;98318.94;1777772;78;28130;-88
2021/06/11 05:44:19;;;;;;;7.15;4.62;;;;;;;18.42;65.87;98312.66;1774564;78;28096;-88
2021/06/11 05:46:45;;;;;;;;;;;;;;;18.47;65.78;98317.48;1750033;80;28079;-88
2021/06/11 05:49:11;;;;;;;;;;;;;;;18.51;65.72;98319.64;1759617;79;20796;-88
2021/06/11 05:51:38;;;;;;;5.42;3.58;;;;;;;18.59;65.65;98321.05;1762141;78;24568;-88
2021/06/11 05:54:04;;;;;;;6.30;4.20;;;;;;;18.66;65.62;98318.06;1767575;78;28041;-88
2021/06/11 05:56:32;;;;;;;5.67;4.00;;;;;;;18.73;65.57;98322.23;1773729;78;28057;-87
2021/06/11 05:59:00;;;;;;;6.22;3.75;;;;;;;18.80;65.53;98324.09;1714254;82;28041;-88
2021/06/11 06:01:26;;;;;;;6.67;4.40;;;;;;;18.87;65.49;98330.08;1742433;80;28070;-88
2021/06/11 06:03:53;;;;;;;8.80;3.85;;;;;;;18.92;65.45;98337.88;1740608;80;28074;-88
2021/06/11 06:06:19;;;;;;;5.33;3.67;;;;;;;18.97;65.38;98331.59;1730607;80;28195;-88
2021/06/11 06:08:45;;;;;;;4.87;3.65;;;;;;;19.02;65.31;98328.45;1725085;81;28085;-88
2021/06/11 06:11:14;;;;;;;4.87;3.90;;;;;;;19.05;65.28;98326.30;1740724;80;28086;-88
2021/06/11 06:13:42;;;;;;;5.33;3.22;;;;;;;19.11;65.20;98328.30;1717610;81;28090;-88
2021/06/11 06:16:09;;;;;;;7.12;3.90;;;;;;;19.17;65.12;98329.47;1739103;80;28233;-89
2021/06/11 06:18:39;;;;;;;4.70;3.77;;;;;;;19.22;65.03;98331.13;1716619;81;28087;-88
2021/06/11 06:21:06;;;;;;;5.00;3.50;;;;;;;19.27;64.98;98327.98;1740954;80;28109;-88
2021/06/11 06:23:36;;;;;;;6.72;3.50;;;;;;;19.33;64.87;98334.80;1744658;80;28035;-89
2021/06/11 06:26:02;;;;;;;6.37;3.35;;;;;;;19.42;64.80;98332.98;1726842;81;28085;-88
2021/06/11 06:28:29;;;;;;;5.72;4.22;;;;;;;19.49;64.78;98332.67;1742773;81;28150;-88
2021/06/11 06:30:56;;;;;;;4.45;3.37;;;;;;;19.54;64.71;98330.34;1695441;82;28209;-89
2021/06/11 06:33:26;;;;;;;7.28;3.67;;;;;;;19.59;64.68;98332.00;1702771;82;28083;-88
2021/06/11 06:35:52;;;;;;;5.33;3.40;;;;;;;19.61;64.60;98333.51;1749056;80;28059;-89
2021/06/11 06:38:18;;;;;;;5.95;3.75;;;;;;;19.70;64.57;98332.16;1738513;80;28156;-88
2021/06/11 06:40:48;;;;;;;3.95;3.27;;;;;;;19.77;64.51;98327.85;1691674;81;28058;-88
2021/06/11 06:43:13;;;;;;;6.37;3.70;;;;;;;19.82;64.45;98326.84;1701494;81;28094;-88
2021/06/11 06:45:40;;;;;;;4.95;3.60;;;;;;;19.84;64.40;98333.67;1767511;78;28134;-88
2021/06/11 06:48:15;;;;;;;8.38;4.15;;;;;;;19.84;64.28;98327.52;1764087;78;28025;-88
2021/06/11 06:50:41;;;;;;;6.35;4.47;;;;;;;19.85;64.18;98331.84;1761577;78;28136;-88
2021/06/11 06:53:10;;;;;;;4.10;3.70;;;;;;;19.89;64.08;98325.19;1767965;78;28013;-87
2021/06/11 06:55:37;;;;;;;5.47;3.47;;;;;;;20.01;64.06;98322.52;1770813;78;28204;-87
2021/06/11 06:58:05;;;;;;;4.78;3.95;;;;;;;20.16;64.04;98320.81;1775047;78;28064;-87
2021/06/11 07:00:32;;;;;;;4.95;3.80;;;;;;;20.24;63.95;98311.47;1773936;78;28160;-88
2021/06/11 07:03:03;;;;;;;5.78;3.98;;;;;;;20.29;63.80;98308.33;1768427;78;28116;-87
2021/06/11 07:05:29;;;;;;;4.60;4.15;;;;;;;20.38;63.78;98308.16;1741145;80;28109;-86
2021/06/11 07:07:56;;;;;;;4.08;3.67;;;;;;;20.48;63.72;98309.27;1740928;80;28026;-88
2021/06/11 07:10:24;;;;;;;5.67;3.70;;;;;;;20.55;63.57;98305.42;1714987;81;28094;-88
2021/06/11 07:12:50;;;;;;;4.78;3.72;;;;;;;20.52;63.41;98302.59;1736156;81;28087;-88
2021/06/11 07:15:17;;;;;;;5.12;4.08;;;;;;;20.47;63.24;98303.62;1737355;81;28131;-88
2021/06/11 07:17:46;;;;;;;7.85;4.28;;;;;;;20.54;63.18;98305.92;1743149;80;28088;-87
2021/06/11 07:20:13;;;;;;;5.30;4.45;;;;;;;20.65;63.10;98311.36;1769319;78;28084;-88
2021/06/11 07:22:39;;;;;;;4.55;3.87;;;;;;;20.76;63.00;98313.62;1773309;78;28052;-88
2021/06/11 07:25:07;;;;;;;5.10;3.50;;;;;;;20.89;62.90;98315.23;1770984;78;28128;-87
2021/06/11 07:27:37;;;;;;;6.20;3.77;;;;;;;20.95;62.79;98315.84;1763793;78;28077;-88
2021/06/11 07:30:09;;;;;;;5.55;3.90;;;;;;;20.97;62.68;98309.84;1764158;78;28117;-88
2021/06/11 07:32:42;;;;;;;5.25;3.67;;;;;;;21.10;62.59;98310.11;1774399;78;28079;-88
2021/06/11 07:35:14;;;;;;;5.33;4.20;;;;;;;21.23;62.50;98315.69;1771437;78;28126;-88
2021/06/11 07:37:41;;;;;;;4.70;3.67;;;;;;;21.34;62.40;98317.11;1753133;78;28084;-88
2021/06/11 07:40:09;;;;;;;4.08;3.67;;;;;;;21.41;62.26;98310.08;1734167;80;28406;-87
2021/06/11 07:42:38;;;;;;;5.50;3.33;;;;;;;21.46;62.14;98312.20;1692059;80;45896;-87
2021/06/11 07:45:06;;;;;;;4.33;3.45;;;;;;;21.57;62.05;98317.09;1740107;80;28151;-88
2021/06/11 07:47:34;;;;;;;5.10;3.22;;;;;;;21.63;61.86;98316.38;1722281;80;28181;-87
2021/06/11 07:50:01;;;;;;;4.25;3.22;;;;;;;21.71;61.64;98312.33;1735963;80;28067;-88
2021/06/11 07:52:27;;;;;;;5.28;3.10;;;;;;;21.76;61.46;98319.27;1739645;80;28150;-88
2021/06/11 07:54:53;;;;;;;5.50;3.40;;;;;;;21.77;61.21;98320.08;1736451;80;28102;-88
2021/06/11 07:57:20;;;;;;;4.30;3.35;;;;;;;21.71;60.90;98315.00;1743880;80;28104;-88
2021/06/11 07:59:46;;;;;;;4.72;3.35;;;;;;;21.73;60.71;98320.95;1743831;80;28099;-88
2021/06/11 08:02:15;;;;;;;3.92;3.15;;;;;;;21.71;60.44;98317.66;1730943;80;28061;-88
2021/06/11 08:04:41;;;;;;;6.45;3.15;;;;;;;21.67;60.04;98318.50;1704186;83;28073;-88
2021/06/11 08:07:07;;;;;;;4.62;3.70;;;;;;;21.68;59.76;98322.83;1674947;83;28105;-88
2021/06/11 08:09:34;;;;;;;5.72;3.37;;;;;;;21.76;59.60;98321.11;1678330;83;28092;-88
2021/06/11 08:12:00;;;;;;;4.15;3.15;;;;;;;21.83;59.50;98314.02;1700611;81;28091;-88
2021/06/11 08:14:26;;;;;;;5.25;3.20;;;;;;;21.82;59.24;98313.20;1735595;80;27995;-88
2021/06/11 08:16:53;;;;;;;5.17;2.92;;;;;;;21.95;59.04;98305.95;1735411;80;28145;-88
2021/06/11 08:19:20;;;;;;;3.90;2.70;;;;;;;22.10;58.98;98302.79;1742404;80;28093;-87
2021/06/11 08:21:46;;;;;;;3.08;2.42;;;;;;;22.24;58.71;98306.48;1733883;80;28357;-88
2021/06/11 08:24:14;;;;;;;5.95;3.00;;;;;;;22.35;58.49;98310.02;1740203;80;28065;-88
2021/06/11 08:26:41;;;;;;;4.47;2.70;;;;;;;22.49;58.26;98305.17;1734639;80;28099;-88
2021/06/11 08:29:07;;;;;;;4.17;2.90;;;;;;;22.60;58.10;98306.03;1733279;80;28152;-88
2021/06/11 08:31:33;;;;;;;3.52;2.70;;;;;;;22.65;57.86;98306.80;1737029;80;28113;-87
2021/06/11 08:34:00;;;;;;;6.62;3.55;;;;;;;22.75;57.71;98313.53;1733864;80;28087;-88
2021/06/11 08:36:26;;;;;;;3.85;2.70;;;;;;;22.91;57.54;98303.97;1732766;80;28227;-88
2021/06/11 08:38:52;;;;;;;5.72;2.98;;;;;;;22.98;57.33;98303.22;1758183;78;28102;-88
2021/06/11 08:41:21;;;;;;;3.50;2.20;;;;;;;23.06;57.14;98301.78;1776075;78;28095;-88
2021/06/11 08:43:47;;;;;;;4.65;2.72;;;;;;;23.18;56.90;98308.28;1778791;78;28023;-88
2021/06/11 08:46:15;;;;;;;5.15;3.17;;;;;;;23.25;56.72;98302.48;1766605;78;28065;-88
2021/06/11 08:48:42;;;;;;;4.40;2.75;;;;;;;23.32;56.49;98296.20;1774319;78;28067;-87
2021/06/11 08:51:09;;;;;;;2.47;2.20;;;;;;;23.42;56.25;98302.55;1768671;78;28012;-87
2021/06/11 08:53:39;;;;;;;3.37;2.70;;;;;;;23.44;56.00;98297.84;1743469;80;28112;-87
2021/06/11 08:56:06;;;;;;;3.92;2.50;;;;;;;23.55;55.77;98294.69;1739484;80;28200;-87
2021/06/11 08:58:42;;;;;;;2.98;2.67;;;;;;;23.63;55.56;98298.55;1743018;80;28209;-87
2021/06/11 09:01:07;;;;;;;6.25;2.17;;;;;;;23.68;55.35;98300.13;1742049;80;28095;-87
2021/06/11 09:03:52;;;;;;;4.80;2.50;;;;;;;23.86;55.22;98300.16;1742176;80;28120;-87
2021/06/11 09:06:17;;;;;;;2.92;2.33;;;;;;;23.99;54.96;98286.90;1721745;80;28091;-87
2021/06/11 09:08:55;;;;;;;3.15;2.55;;;;;;;24.08;54.69;98288.39;1774263;78;28075;-87
2021/06/11 09:11:29;;;;;;;3.52;2.40;;;;;;;24.15;54.39;98282.07;1766381;78;28150;-87
2021/06/11 09:14:08;;;;;;;3.92;2.40;;;;;;;24.24;53.93;98290.78;1738203;80;28086;-87
2021/06/11 09:16:55;;;;;;;4.85;2.40;;;;;;;24.32;53.64;98285.80;1776134;78;28007;-87
2021/06/11 09:19:30;;;;;;;2.85;2.30;;;;;;;24.26;53.27;98281.23;1771817;78;28142;-87
2021/06/11 09:22:02;;;;;;;2.42;2.22;;;;;;;24.20;52.85;98285.52;1767179;78;28071;-87
2021/06/11 09:24:36;;;;;;;3.20;2.12;;;;;;;24.20;52.59;98287.36;1776625;78;28064;-87
2021/06/11 09:27:07;;;;;;;2.52;2.05;;;;;;;24.15;52.29;98286.08;1772475;78;28126;-87
2021/06/11 09:29:45;;;;;;;1.98;1.77;;;;;;;24.16;52.00;98286.91;1765865;78;28134;-88
2021/06/11 09:32:21;;;;;;;3.58;2.30;;;;;;;24.06;51.63;98285.07;1772595;78;28168;-87
2021/06/11 09:34:50;;;;;;;4.03;2.40;;;;;;;23.97;51.27;98279.58;1763042;78;28100;-87
2021/06/11 09:37:27;;;;;;;2.62;2.12;;;;;;;24.06;51.16;98275.71;1771050;78;28072;-88
2021/06/11 09:40:10;;;;;;;2.42;1.90;;;;;;;24.14;51.00;98276.91;1771421;78;28125;-88
2021/06/11 09:42:44;;;;;;;;;;;;;;;24.23;50.69;98275.75;1776132;78;27994;-87
2021/06/11 09:45:16;;;;;;;;;;;;;;;24.29;50.40;98263.44;1772231;78;20270;-86
2021/06/11 09:47:51;;;;;;;2.40;1.72;;;;;;;24.41;50.27;98260.52;1768301;78;24634;-88
2021/06/11 09:50:33;;;;;;;1.72;1.62;;;;;;;24.46;49.89;98260.73;1771579;78;27992;-89
2021/06/11 09:53:04;;;;;;;2.45;1.52;;;;;;;24.52;49.61;98255.42;1742526;80;28064;-89
2021/06/11 09:55:42;;;;;;;4.50;1.90;;;;;;;24.57;49.38;98253.48;1721030;80;28117;-89
2021/06/11 09:58:27;;;;;;;2.02;1.45;;;;;;;24.65;49.12;98256.50;1742418;80;28172;-89
2021/06/11 10:01:00;;;;;;;3.50;1.80;;;;;;;24.76;48.97;98247.89;1739089;81;28152;-87
2021/06/11 10:03:29;;;;;;;1.85;1.65;;;;;;;24.86;48.81;98249.67;1769473;78;28079;-88
2021/06/11 10:05:58;;;;;;;3.37;1.72;;;;;;;24.94;48.43;98249.50;1778759;78;27994;-89
2021/06/11 10:08:26;;;;;;;2.37;1.67;;;;;;;24.97;48.09;98243.75;1765379;78;28083;-89
2021/06/11 10:10:57;;;;;;;2.37;1.90;;;;;;;24.93;47.67;98245.99;1754860;78;28077;-88
2021/06/11 10:13:24;;;;;;;2.60;1.42;;;;;;;24.88;47.45;98240.93;1768420;78;28082;-89
2021/06/11 10:15:55;;;;;;;2.12;1.70;;;;;;;24.94;47.35;98244.97;1773178;78;28082;-88
2021/06/11 10:18:27;;;;;;;;;;;;;;;24.96;47.20;98240.76;1785695;78;28103;-88
2021/06/11 10:20:56;;;;;;;2.80;1.40;;;;;;;25.01;47.01;98235.61;1775286;78;24701;-88
2021/06/11 10:23:24;;;;;;;2.12;1.50;;;;;;;25.00;46.78;98233.96;1777816;78;28089;-88
2021/06/11 10:25:54;;;;;;;2.08;1.55;;;;;;;25.02;46.58;98226.56;1767062;78;28079;-88
2021/06/11 10:28:29;;;;;;;2.50;1.50;;;;;;;24.98;46.27;98225.33;1763233;78;28062;-88
2021/06/11 10:31:14;;;;;;;1.55;1.40;;;;;;;25.15;46.26;98222.54;1762239;78;28158;-88
2021/06/11 10:33:49;;;;;;;;;;;;;;;25.35;46.23;98223.39;1775705;78;28072;-88
2021/06/11 10:36:27;;;;;;;;;;;;;;;25.48;45.91;98219.04;1788494;78;20157;-88
2021/06/11 10:38:58;;;;;;;1.60;1.40;;;;;;;25.63;45.66;98211.15;1781366;78;24607;-88
2021/06/11 10:41:26;;;;;;;2.22;1.55;;;;;;;25.73;45.31;98208.86;1767227;78;28132;-87
2021/06/11 10:43:54;;;;;;;2.65;1.60;;;;;;;25.86;44.96;98203.17;1759742;78;28135;-87
2021/06/11 10:46:24;;;;;;;2.87;1.47;;;;;;;25.92;44.67;98198.28;1773118;78;28211;-88
2021/06/11 10:49:07;;;;;;;1.77;1.35;;;;;;;26.07;44.51;98193.52;1765038;78;28083;-87
2021/06/11 10:51:50;;;;;;;2.30;1.40;;;;;;;26.28;44.32;98193.78;1768459;78;28149;-87
2021/06/11 10:54:20;;;;;;;1.82;1.40;;;;;;;26.39;44.05;98197.14;1776020;78;28451;-88
2021/06/11 10:57:11;;;;;;;2.42;1.42;;;;;;;26.48;43.84;98186.45;1759219;78;28091;-88
2021/06/11 10:59:41;;;;;;;2.70;1.40;;;;;;;26.58;43.73;98184.12;1771298;78;27988;-88
2021/06/11 11:02:08;;;;;;;1.75;1.60;;;;;;;26.70;43.35;98189.63;1777099;78;28099;-87
2021/06/11 11:04:44;;;;;;;2.37;1.50;;;;;;;26.84;43.30;98190.67;1769989;78;28079;-87
2021/06/11 11:07:32;;;;;;;1.62;0.98;;;;;;;26.83;42.86;98186.36;1779331;78;28150;-88
2021/06/11 11:10:04;;;;;;;1.47;1.37;;;;;;;26.75;42.51;98185.27;1778028;78;28127;-88
2021/06/11 11:12:50;;;;;;;2.58;1.10;;;;;;;26.64;42.15;98179.23;1771244;78;28069;-87
2021/06/11 11:15:33;;;;;;;2.05;1.30;;;;;;;26.68;42.10;98181.78;1769266;78;28092;-87
2021/06/11 11:18:02;;;;;;;1.57;1.47;;;;;;;26.80;42.00;98181.41;1772330;78;28090;-87
2021/06/11 11:20:31;;;;;;;2.87;1.62;;;;;;;26.91;41.82;98180.74;1775684;78;28011;-87
2021/06/11 11:22:59;;;;;;;2.80;1.12;;;;;;;26.94;41.58;98187.05;1772186;78;28008;-87
2021/06/11 11:25:28;;;;;;;1.80;1.70;;;;;;;26.92;41.27;98182.91;1768939;78;28048;-87
2021/06/11 11:27:59;;;;;;;1.90;1.20;;;;;;;26.90;41.12;98182.30;1783760;78;28227;-87
2021/06/11 11:30:27;;;;;;;1.40;1.22;;;;;;;26.94;41.09;98178.98;1766506;78;28162;-87
2021/06/11 11:32:57;;;;;;;1.95;1.25;;;;;;;26.96;40.94;98176.89;1777207;78;28030;-87
2021/06/11 11:35:26;;;;;;;2.08;1.20;;;;;;;26.97;40.76;98175.84;1791760;78;28052;-87
2021/06/11 11:37:54;;;;;;;2.10;1.17;;;;;;;26.92;40.48;98178.89;1775431;78;28157;-88
2021/06/11 11:40:24;;;;;;;2.22;1.27;;;;;;;26.91;40.49;98175.38;1762350;78;28152;-88
2021/06/11 11:42:57;;;;;;;1.72;1.30;;;;;;;26.88;40.46;98163.73;1736916;80;28055;-87
2021/06/11 11:45:26;;;;;;;2.92;1.50;;;;;;;26.89;40.21;98169.41;1745045;80;28103;-87
2021/06/11 11:47:55;;;;;;;3.05;1.27;;;;;;;26.80;40.00;98165.30;1742518;80;28188;-87